sensor_id;sensor_type;location;lat;lon;timestamp;temperature;humidity
10864;DHT22;5485;37.558;126.950;2023-04-03T00:01:16;24.10;1.00
10864;DHT22;5485;37.558;126.950;2023-04-03T00:03:43;24.10;1.00
10864;DHT22;5485;37.558;126.950;2023-04-03T00:06:11;24.80;1.00
10864;DHT22;5485;37.558;126.950;2023-04-03T00:08:39;25.20;1.00
10864;DHT22;5485;37.558;126.950;2023-04-03T00:11:09;25.30;1.00
10864;DHT22;5485;37.558;126.950;2023-04-03T00:13:38;25.00;1.00
10864;DHT22;5485;37.558;126.950;2023-04-03T00:16:07;25.20;1.00
10864;DHT22;5485;37.558;126.950;2023-04-03T00:18:34;24.90;1.00
10864;DHT22;5485;37.558;126.950;2023-04-03T00:21:01;25.40;1.00
10864;DHT22;5485;37.558;126.950;2023-04-03T00:23:28;25.50;1.00
10864;DHT22;5485;37.558;126.950;2023-04-03T00:25:55;25.60;1.00
10864;DHT22;5485;37.558;126.950;2023-04-03T00:28:22;25.20;1.00
10864;DHT22;5485;37.558;126.950;2023-04-03T00:30:50;24.90;1.00
10864;DHT22;5485;37.558;126.950;2023-04-03T00:33:17;24.80;1.00
10864;DHT22;5485;37.558;126.950;2023-04-03T00:35:48;25.20;1.00
10864;DHT22;5485;37.558;126.950;2023-04-03T00:38:15;25.40;1.00
10864;DHT22;5485;37.558;126.950;2023-04-03T00:40:45;25.20;1.00
10864;DHT22;5485;37.558;126.950;2023-04-03T00:43:18;25.70;1.00
10864;DHT22;5485;37.558;126.950;2023-04-03T00:45:49;25.50;1.00
10864;DHT22;5485;37.558;126.950;2023-04-03T00:51:00;25.40;1.00
10864;DHT22;5485;37.558;126.950;2023-04-03T00:53:53;25.30;1.00
10864;DHT22;5485;37.558;126.950;2023-04-03T00:56:25;25.10;1.00
10864;DHT22;5485;37.558;126.950;2023-04-03T00:59:13;25.30;1.00
10864;DHT22;5485;37.558;126.950;2023-04-03T01:01:42;25.10;1.00
10864;DHT22;5485;37.558;126.950;2023-04-03T01:07:06;24.80;1.00
10864;DHT22;5485;37.558;126.950;2023-04-03T01:09:34;24.90;1.00
10864;DHT22;5485;37.558;126.950;2023-04-03T01:12:28;25.10;1.00
10864;DHT22;5485;37.558;126.950;2023-04-03T01:15:05;24.80;1.00
10864;DHT22;5485;37.558;126.950;2023-04-03T01:17:48;24.20;1.00
10864;DHT22;5485;37.558;126.950;2023-04-03T01:20:36;24.20;1.00
10864;DHT22;5485;37.558;126.950;2023-04-03T01:25:44;24.30;1.00
10864;DHT22;5485;37.558;126.950;2023-04-03T01:28:25;23.90;1.00
10864;DHT22;5485;37.558;126.950;2023-04-03T01:33:34;24.30;1.00
10864;DHT22;5485;37.558;126.950;2023-04-03T01:36:01;24.30;1.00
10864;DHT22;5485;37.558;126.950;2023-04-03T01:38:29;24.60;1.00
10864;DHT22;5485;37.558;126.950;2023-04-03T01:40:56;24.50;1.00
10864;DHT22;5485;37.558;126.950;2023-04-03T01:43:26;24.50;1.00
10864;DHT22;5485;37.558;126.950;2023-04-03T01:45:55;24.30;1.00
10864;DHT22;5485;37.558;126.950;2023-04-03T01:48:22;24.60;1.00
10864;DHT22;5485;37.558;126.950;2023-04-03T01:50:49;24.70;1.00
10864;DHT22;5485;37.558;126.950;2023-04-03T01:53:16;24.60;1.00
10864;DHT22;5485;37.558;126.950;2023-04-03T01:55:43;24.80;1.00
10864;DHT22;5485;37.558;126.950;2023-04-03T01:58:10;25.10;1.00
10864;DHT22;5485;37.558;126.950;2023-04-03T02:00:37;24.90;1.00
10864;DHT22;5485;37.558;126.950;2023-04-03T02:03:04;25.00;1.00
10864;DHT22;5485;37.558;126.950;2023-04-03T02:05:35;25.30;1.00
10864;DHT22;5485;37.558;126.950;2023-04-03T02:08:02;25.20;1.00
10864;DHT22;5485;37.558;126.950;2023-04-03T02:10:32;25.40;1.00
10864;DHT22;5485;37.558;126.950;2023-04-03T02:12:59;25.60;1.00
10864;DHT22;5485;37.558;126.950;2023-04-03T02:15:25;25.90;1.00
10864;DHT22;5485;37.558;126.950;2023-04-03T02:17:53;25.50;1.00
10864;DHT22;5485;37.558;126.950;2023-04-03T02:20:20;25.80;1.00
10864;DHT22;5485;37.558;126.950;2023-04-03T02:22:47;25.90;1.00
10864;DHT22;5485;37.558;126.950;2023-04-03T02:25:14;25.20;1.00
10864;DHT22;5485;37.558;126.950;2023-04-03T02:27:44;25.40;1.00
10864;DHT22;5485;37.558;126.950;2023-04-03T02:30:11;25.20;1.00
10864;DHT22;5485;37.558;126.950;2023-04-03T02:32:38;25.60;1.00
10864;DHT22;5485;37.558;126.950;2023-04-03T02:35:07;25.50;1.00
10864;DHT22;5485;37.558;126.950;2023-04-03T02:37:34;25.90;1.00
10864;DHT22;5485;37.558;126.950;2023-04-03T02:40:00;25.60;1.00
10864;DHT22;5485;37.558;126.950;2023-04-03T02:42:29;25.50;1.00
10864;DHT22;5485;37.558;126.950;2023-04-03T02:44:57;25.60;1.00
10864;DHT22;5485;37.558;126.950;2023-04-03T02:47:24;25.40;1.00
10864;DHT22;5485;37.558;126.950;2023-04-03T02:49:51;25.30;1.00
10864;DHT22;5485;37.558;126.950;2023-04-03T02:52:18;24.90;1.00
10864;DHT22;5485;37.558;126.950;2023-04-03T02:54:45;24.90;1.00
10864;DHT22;5485;37.558;126.950;2023-04-03T02:57:12;25.00;1.00
10864;DHT22;5485;37.558;126.950;2023-04-03T02:59:39;25.00;1.00
10864;DHT22;5485;37.558;126.950;2023-04-03T03:02:10;24.70;1.00
10864;DHT22;5485;37.558;126.950;2023-04-03T03:04:37;24.20;1.00
10864;DHT22;5485;37.558;126.950;2023-04-03T03:07:04;23.90;1.00
10864;DHT22;5485;37.558;126.950;2023-04-03T03:09:31;23.80;1.00
10864;DHT22;5485;37.558;126.950;2023-04-03T03:11:59;23.80;1.00
10864;DHT22;5485;37.558;126.950;2023-04-03T03:14:26;23.70;1.00
10864;DHT22;5485;37.558;126.950;2023-04-03T03:16:54;23.60;1.00
10864;DHT22;5485;37.558;126.950;2023-04-03T03:19:22;23.60;1.00
10864;DHT22;5485;37.558;126.950;2023-04-03T03:21:49;23.70;1.00
10864;DHT22;5485;37.558;126.950;2023-04-03T03:24:17;23.70;1.00
10864;DHT22;5485;37.558;126.950;2023-04-03T03:26:44;23.80;1.00
10864;DHT22;5485;37.558;126.950;2023-04-03T03:29:14;23.70;1.00
10864;DHT22;5485;37.558;126.950;2023-04-03T03:31:41;23.50;1.00
10864;DHT22;5485;37.558;126.950;2023-04-03T03:34:08;23.70;1.00
10864;DHT22;5485;37.558;126.950;2023-04-03T03:36:34;23.60;1.00
10864;DHT22;5485;37.558;126.950;2023-04-03T03:39:02;23.50;1.00
10864;DHT22;5485;37.558;126.950;2023-04-03T03:41:29;23.50;1.00
10864;DHT22;5485;37.558;126.950;2023-04-03T03:44:00;23.50;1.00
10864;DHT22;5485;37.558;126.950;2023-04-03T03:46:26;23.30;1.00
10864;DHT22;5485;37.558;126.950;2023-04-03T03:48:53;23.30;1.00
10864;DHT22;5485;37.558;126.950;2023-04-03T03:51:20;23.20;1.00
10864;DHT22;5485;37.558;126.950;2023-04-03T03:53:47;23.20;1.00
10864;DHT22;5485;37.558;126.950;2023-04-03T03:56:14;23.20;1.00
10864;DHT22;5485;37.558;126.950;2023-04-03T03:58:41;22.90;1.00
10864;DHT22;5485;37.558;126.950;2023-04-03T04:01:08;22.90;1.00
10864;DHT22;5485;37.558;126.950;2023-04-03T04:03:37;23.00;1.00
10864;DHT22;5485;37.558;126.950;2023-04-03T04:06:04;23.00;1.00
10864;DHT22;5485;37.558;126.950;2023-04-03T04:08:31;23.20;1.00
10864;DHT22;5485;37.558;126.950;2023-04-03T04:10:59;23.30;1.00
10864;DHT22;5485;37.558;126.950;2023-04-03T04:13:26;23.40;1.00
10864;DHT22;5485;37.558;126.950;2023-04-03T04:15:53;23.60;1.00
10864;DHT22;5485;37.558;126.950;2023-04-03T04:18:20;23.70;1.00
10864;DHT22;5485;37.558;126.950;2023-04-03T04:20:47;23.80;1.00
10864;DHT22;5485;37.558;126.950;2023-04-03T04:23:16;23.80;1.00
10864;DHT22;5485;37.558;126.950;2023-04-03T04:25:45;23.80;1.00
10864;DHT22;5485;37.558;126.950;2023-04-03T04:28:12;23.90;1.00
10864;DHT22;5485;37.558;126.950;2023-04-03T04:30:40;24.00;1.00
10864;DHT22;5485;37.558;126.950;2023-04-03T04:33:07;23.90;1.00
10864;DHT22;5485;37.558;126.950;2023-04-03T04:35:34;24.00;1.00
10864;DHT22;5485;37.558;126.950;2023-04-03T04:38:01;24.10;1.00
10864;DHT22;5485;37.558;126.950;2023-04-03T04:40:29;24.10;1.00
10864;DHT22;5485;37.558;126.950;2023-04-03T04:42:59;24.00;1.00
10864;DHT22;5485;37.558;126.950;2023-04-03T04:45:26;24.10;1.00
10864;DHT22;5485;37.558;126.950;2023-04-03T04:47:55;24.10;1.00
10864;DHT22;5485;37.558;126.950;2023-04-03T04:50:25;24.20;1.00
10864;DHT22;5485;37.558;126.950;2023-04-03T04:52:54;24.30;1.00
10864;DHT22;5485;37.558;126.950;2023-04-03T04:55:21;24.30;1.00
10864;DHT22;5485;37.558;126.950;2023-04-03T04:57:51;24.20;1.00
10864;DHT22;5485;37.558;126.950;2023-04-03T05:00:18;24.30;1.00
10864;DHT22;5485;37.558;126.950;2023-04-03T05:02:45;24.40;1.00
10864;DHT22;5485;37.558;126.950;2023-04-03T05:05:14;24.30;1.00
10864;DHT22;5485;37.558;126.950;2023-04-03T05:07:42;24.30;1.00
10864;DHT22;5485;37.558;126.950;2023-04-03T05:10:12;24.20;1.00
10864;DHT22;5485;37.558;126.950;2023-04-03T05:12:48;24.30;1.00
10864;DHT22;5485;37.558;126.950;2023-04-03T05:15:18;24.20;1.00
10864;DHT22;5485;37.558;126.950;2023-04-03T05:17:44;24.10;1.00
10864;DHT22;5485;37.558;126.950;2023-04-03T05:20:12;24.20;1.00
10864;DHT22;5485;37.558;126.950;2023-04-03T05:22:38;24.20;1.00
10864;DHT22;5485;37.558;126.950;2023-04-03T05:25:06;24.20;1.00
10864;DHT22;5485;37.558;126.950;2023-04-03T05:27:34;24.30;1.00
10864;DHT22;5485;37.558;126.950;2023-04-03T05:30:02;24.40;1.00
10864;DHT22;5485;37.558;126.950;2023-04-03T05:32:29;24.40;1.00
10864;DHT22;5485;37.558;126.950;2023-04-03T05:34:57;24.50;1.00
10864;DHT22;5485;37.558;126.950;2023-04-03T05:37:24;24.30;1.00
10864;DHT22;5485;37.558;126.950;2023-04-03T05:39:51;24.30;1.00
10864;DHT22;5485;37.558;126.950;2023-04-03T05:42:18;24.30;1.00
10864;DHT22;5485;37.558;126.950;2023-04-03T05:44:44;24.40;1.00
10864;DHT22;5485;37.558;126.950;2023-04-03T05:47:17;24.60;1.00
10864;DHT22;5485;37.558;126.950;2023-04-03T05:49:44;24.40;1.00
10864;DHT22;5485;37.558;126.950;2023-04-03T05:52:31;24.40;1.00
10864;DHT22;5485;37.558;126.950;2023-04-03T05:55:00;24.30;1.00
10864;DHT22;5485;37.558;126.950;2023-04-03T05:57:27;24.20;1.00
10864;DHT22;5485;37.558;126.950;2023-04-03T05:59:54;24.30;1.00
10864;DHT22;5485;37.558;126.950;2023-04-03T06:02:23;24.40;1.00
10864;DHT22;5485;37.558;126.950;2023-04-03T06:04:52;24.50;1.00
10864;DHT22;5485;37.558;126.950;2023-04-03T06:07:21;24.60;1.00
10864;DHT22;5485;37.558;126.950;2023-04-03T06:09:52;24.60;1.00
10864;DHT22;5485;37.558;126.950;2023-04-03T06:12:19;24.70;1.00
10864;DHT22;5485;37.558;126.950;2023-04-03T06:14:47;24.50;1.00
10864;DHT22;5485;37.558;126.950;2023-04-03T06:17:15;24.50;1.00
10864;DHT22;5485;37.558;126.950;2023-04-03T06:19:43;24.60;1.00
10864;DHT22;5485;37.558;126.950;2023-04-03T06:22:10;24.80;1.00
10864;DHT22;5485;37.558;126.950;2023-04-03T06:24:38;24.80;1.00
10864;DHT22;5485;37.558;126.950;2023-04-03T06:27:05;24.80;1.00
10864;DHT22;5485;37.558;126.950;2023-04-03T06:29:32;24.50;1.00
10864;DHT22;5485;37.558;126.950;2023-04-03T06:32:01;24.50;1.00
10864;DHT22;5485;37.558;126.950;2023-04-03T06:34:28;24.70;1.00
10864;DHT22;5485;37.558;126.950;2023-04-03T06:36:55;24.90;1.00
10864;DHT22;5485;37.558;126.950;2023-04-03T06:39:22;24.90;1.00
10864;DHT22;5485;37.558;126.950;2023-04-03T06:41:50;24.90;1.00
10864;DHT22;5485;37.558;126.950;2023-04-03T06:44:17;24.90;1.00
10864;DHT22;5485;37.558;126.950;2023-04-03T06:46:45;24.80;1.00
10864;DHT22;5485;37.558;126.950;2023-04-03T06:49:14;24.60;1.00
10864;DHT22;5485;37.558;126.950;2023-04-03T06:51:41;24.50;1.00
10864;DHT22;5485;37.558;126.950;2023-04-03T06:54:08;24.50;1.00
10864;DHT22;5485;37.558;126.950;2023-04-03T06:56:38;24.40;1.00
10864;DHT22;5485;37.558;126.950;2023-04-03T06:59:05;24.40;1.00
10864;DHT22;5485;37.558;126.950;2023-04-03T07:01:32;24.60;1.00
10864;DHT22;5485;37.558;126.950;2023-04-03T07:03:59;24.60;1.00
10864;DHT22;5485;37.558;126.950;2023-04-03T07:06:28;24.80;1.00
10864;DHT22;5485;37.558;126.950;2023-04-03T07:08:55;24.90;1.00
10864;DHT22;5485;37.558;126.950;2023-04-03T07:11:22;25.00;1.00
10864;DHT22;5485;37.558;126.950;2023-04-03T07:13:50;24.90;1.00
10864;DHT22;5485;37.558;126.950;2023-04-03T07:16:17;25.00;1.00
10864;DHT22;5485;37.558;126.950;2023-04-03T07:18:45;25.00;1.00
10864;DHT22;5485;37.558;126.950;2023-04-03T07:21:12;24.90;1.00
10864;DHT22;5485;37.558;126.950;2023-04-03T07:23:39;24.90;1.00
10864;DHT22;5485;37.558;126.950;2023-04-03T07:26:07;24.90;1.00
10864;DHT22;5485;37.558;126.950;2023-04-03T07:28:34;24.90;1.00
10864;DHT22;5485;37.558;126.950;2023-04-03T07:31:03;24.80;1.00
10864;DHT22;5485;37.558;126.950;2023-04-03T07:33:32;24.80;1.00
10864;DHT22;5485;37.558;126.950;2023-04-03T07:36:00;24.90;1.00
10864;DHT22;5485;37.558;126.950;2023-04-03T07:38:29;24.90;1.00
10864;DHT22;5485;37.558;126.950;2023-04-03T07:40:56;24.80;1.00
10864;DHT22;5485;37.558;126.950;2023-04-03T07:43:23;24.80;1.00
10864;DHT22;5485;37.558;126.950;2023-04-03T07:45:51;24.80;1.00
10864;DHT22;5485;37.558;126.950;2023-04-03T07:48:20;24.90;1.00
10864;DHT22;5485;37.558;126.950;2023-04-03T07:50:47;25.00;1.00
10864;DHT22;5485;37.558;126.950;2023-04-03T07:53:14;25.00;1.00
10864;DHT22;5485;37.558;126.950;2023-04-03T07:55:41;25.00;1.00
10864;DHT22;5485;37.558;126.950;2023-04-03T07:58:12;24.90;1.00
10864;DHT22;5485;37.558;126.950;2023-04-03T08:00:39;24.90;1.00
10864;DHT22;5485;37.558;126.950;2023-04-03T08:03:09;24.90;1.00
10864;DHT22;5485;37.558;126.950;2023-04-03T08:05:41;24.90;1.00
10864;DHT22;5485;37.558;126.950;2023-04-03T08:08:10;24.80;1.00
10864;DHT22;5485;37.558;126.950;2023-04-03T08:10:38;24.80;1.00
10864;DHT22;5485;37.558;126.950;2023-04-03T08:13:06;24.80;1.00
10864;DHT22;5485;37.558;126.950;2023-04-03T08:15:33;24.80;1.00
10864;DHT22;5485;37.558;126.950;2023-04-03T08:18:03;24.90;1.00
10864;DHT22;5485;37.558;126.950;2023-04-03T08:20:30;24.90;1.00
10864;DHT22;5485;37.558;126.950;2023-04-03T08:23:00;24.90;1.00
10864;DHT22;5485;37.558;126.950;2023-04-03T08:25:26;24.80;1.00
10864;DHT22;5485;37.558;126.950;2023-04-03T08:27:55;24.60;1.00
10864;DHT22;5485;37.558;126.950;2023-04-03T08:30:22;24.50;1.00
10864;DHT22;5485;37.558;126.950;2023-04-03T08:32:49;24.50;1.00
10864;DHT22;5485;37.558;126.950;2023-04-03T08:35:16;24.40;1.00
10864;DHT22;5485;37.558;126.950;2023-04-03T08:37:43;24.30;1.00
10864;DHT22;5485;37.558;126.950;2023-04-03T08:40:15;24.30;1.00
10864;DHT22;5485;37.558;126.950;2023-04-03T08:45:44;24.20;1.00
10864;DHT22;5485;37.558;126.950;2023-04-03T08:48:17;24.10;1.00
10864;DHT22;5485;37.558;126.950;2023-04-03T08:50:52;24.00;1.00
10864;DHT22;5485;37.558;126.950;2023-04-03T08:53:26;23.90;1.00
10864;DHT22;5485;37.558;126.950;2023-04-03T08:55:58;23.80;1.00
10864;DHT22;5485;37.558;126.950;2023-04-03T08:58:30;23.60;1.00
10864;DHT22;5485;37.558;126.950;2023-04-03T09:01:02;23.50;1.00
10864;DHT22;5485;37.558;126.950;2023-04-03T09:03:32;23.40;1.00
10864;DHT22;5485;37.558;126.950;2023-04-03T09:06:11;23.30;1.00
10864;DHT22;5485;37.558;126.950;2023-04-03T09:09:15;23.20;1.00
10864;DHT22;5485;37.558;126.950;2023-04-03T09:15:22;22.90;1.00
10864;DHT22;5485;37.558;126.950;2023-04-03T09:18:36;22.80;1.00
10864;DHT22;5485;37.558;126.950;2023-04-03T09:21:21;22.70;1.00
10864;DHT22;5485;37.558;126.950;2023-04-03T09:23:55;22.50;1.00
10864;DHT22;5485;37.558;126.950;2023-04-03T09:26:48;22.40;1.00
10864;DHT22;5485;37.558;126.950;2023-04-03T09:29:22;22.30;1.00
10864;DHT22;5485;37.558;126.950;2023-04-03T09:31:56;22.30;1.00
10864;DHT22;5485;37.558;126.950;2023-04-03T09:34:32;22.20;1.00
10864;DHT22;5485;37.558;126.950;2023-04-03T09:37:01;22.10;1.00
10864;DHT22;5485;37.558;126.950;2023-04-03T09:39:53;22.00;1.00
10864;DHT22;5485;37.558;126.950;2023-04-03T09:42:23;21.90;1.00
10864;DHT22;5485;37.558;126.950;2023-04-03T09:44:56;21.80;1.00
10864;DHT22;5485;37.558;126.950;2023-04-03T09:47:34;21.80;1.00
10864;DHT22;5485;37.558;126.950;2023-04-03T09:52:50;21.50;1.00
10864;DHT22;5485;37.558;126.950;2023-04-03T09:55:27;21.50;1.00
10864;DHT22;5485;37.558;126.950;2023-04-03T09:58:02;21.30;1.00
10864;DHT22;5485;37.558;126.950;2023-04-03T10:00:56;21.30;1.00
10864;DHT22;5485;37.558;126.950;2023-04-03T10:03:36;21.20;1.00
10864;DHT22;5485;37.558;126.950;2023-04-03T10:06:22;21.10;1.00
10864;DHT22;5485;37.558;126.950;2023-04-03T10:09:06;21.00;1.00
10864;DHT22;5485;37.558;126.950;2023-04-03T10:11:34;20.90;1.00
10864;DHT22;5485;37.558;126.950;2023-04-03T10:14:02;20.80;1.00
10864;DHT22;5485;37.558;126.950;2023-04-03T10:16:43;20.80;1.00
10864;DHT22;5485;37.558;126.950;2023-04-03T10:25:13;20.50;1.00
10864;DHT22;5485;37.558;126.950;2023-04-03T10:28:10;20.30;1.00
10864;DHT22;5485;37.558;126.950;2023-04-03T10:36:10;20.10;1.00
10864;DHT22;5485;37.558;126.950;2023-04-03T10:39:08;20.10;1.00
10864;DHT22;5485;37.558;126.950;2023-04-03T10:45:01;19.90;1.00
10864;DHT22;5485;37.558;126.950;2023-04-03T10:47:41;19.80;1.00
10864;DHT22;5485;37.558;126.950;2023-04-03T10:56:24;19.40;1.00
10864;DHT22;5485;37.558;126.950;2023-04-03T10:58:56;19.50;1.00
10864;DHT22;5485;37.558;126.950;2023-04-03T11:01:30;19.50;1.00
10864;DHT22;5485;37.558;126.950;2023-04-03T11:04:00;19.50;1.00
10864;DHT22;5485;37.558;126.950;2023-04-03T11:07:16;19.50;1.00
10864;DHT22;5485;37.558;126.950;2023-04-03T11:09:34;19.50;1.00
10864;DHT22;5485;37.558;126.950;2023-04-03T11:14:49;19.30;1.00
10864;DHT22;5485;37.558;126.950;2023-04-03T11:17:22;19.30;1.00
10864;DHT22;5485;37.558;126.950;2023-04-03T11:20:18;19.30;1.00
10864;DHT22;5485;37.558;126.950;2023-04-03T11:25:32;19.10;1.00
10864;DHT22;5485;37.558;126.950;2023-04-03T11:28:05;19.00;1.00
10864;DHT22;5485;37.558;126.950;2023-04-03T11:30:40;18.90;1.00
10864;DHT22;5485;37.558;126.950;2023-04-03T11:33:24;18.90;1.00
10864;DHT22;5485;37.558;126.950;2023-04-03T11:36:18;18.80;1.00
10864;DHT22;5485;37.558;126.950;2023-04-03T11:38:47;18.80;1.00
10864;DHT22;5485;37.558;126.950;2023-04-03T11:41:18;18.90;1.00
10864;DHT22;5485;37.558;126.950;2023-04-03T11:44:25;18.90;1.00
10864;DHT22;5485;37.558;126.950;2023-04-03T11:46:58;18.90;1.00
10864;DHT22;5485;37.558;126.950;2023-04-03T11:49:55;18.80;1.00
10864;DHT22;5485;37.558;126.950;2023-04-03T12:00:56;18.80;1.00
10864;DHT22;5485;37.558;126.950;2023-04-03T12:08:27;18.70;1.00
10864;DHT22;5485;37.558;126.950;2023-04-03T12:16:29;18.70;1.00
10864;DHT22;5485;37.558;126.950;2023-04-03T12:19:03;18.80;1.00
10864;DHT22;5485;37.558;126.950;2023-04-03T12:35:14;19.10;1.00
10864;DHT22;5485;37.558;126.950;2023-04-03T12:38:14;19.10;1.00
10864;DHT22;5485;37.558;126.950;2023-04-03T12:48:53;19.10;1.00
10864;DHT22;5485;37.558;126.950;2023-04-03T12:51:42;19.10;1.00
10864;DHT22;5485;37.558;126.950;2023-04-03T12:54:37;19.10;1.00
10864;DHT22;5485;37.558;126.950;2023-04-03T12:57:26;19.10;1.00
10864;DHT22;5485;37.558;126.950;2023-04-03T12:59:56;19.00;1.00
10864;DHT22;5485;37.558;126.950;2023-04-03T13:02:34;19.10;1.00
10864;DHT22;5485;37.558;126.950;2023-04-03T13:05:08;19.10;1.00
10864;DHT22;5485;37.558;126.950;2023-04-03T13:07:41;19.10;1.00
10864;DHT22;5485;37.558;126.950;2023-04-03T13:15:59;19.10;1.00
10864;DHT22;5485;37.558;126.950;2023-04-03T13:18:29;19.10;1.00
10864;DHT22;5485;37.558;126.950;2023-04-03T13:21:02;19.10;1.00
10864;DHT22;5485;37.558;126.950;2023-04-03T13:23:30;19.10;1.00
10864;DHT22;5485;37.558;126.950;2023-04-03T13:25:59;19.20;1.00
10864;DHT22;5485;37.558;126.950;2023-04-03T13:28:30;19.20;1.00
10864;DHT22;5485;37.558;126.950;2023-04-03T13:33:54;19.20;1.00
10864;DHT22;5485;37.558;126.950;2023-04-03T13:36:31;19.10;1.00
10864;DHT22;5485;37.558;126.950;2023-04-03T13:41:44;19.00;1.00
10864;DHT22;5485;37.558;126.950;2023-04-03T13:46:59;19.10;1.00
10864;DHT22;5485;37.558;126.950;2023-04-03T13:49:36;19.00;1.00
10864;DHT22;5485;37.558;126.950;2023-04-03T13:52:22;19.00;1.00
10864;DHT22;5485;37.558;126.950;2023-04-03T13:54:58;19.10;1.00
10864;DHT22;5485;37.558;126.950;2023-04-03T13:57:26;19.10;1.00
10864;DHT22;5485;37.558;126.950;2023-04-03T13:59:53;19.10;1.00
10864;DHT22;5485;37.558;126.950;2023-04-03T14:02:22;19.10;1.00
10864;DHT22;5485;37.558;126.950;2023-04-03T14:05:00;19.10;1.00
10864;DHT22;5485;37.558;126.950;2023-04-03T14:07:31;19.10;1.00
10864;DHT22;5485;37.558;126.950;2023-04-03T14:09:58;19.10;1.00
10864;DHT22;5485;37.558;126.950;2023-04-03T14:12:38;19.10;1.00
10864;DHT22;5485;37.558;126.950;2023-04-03T14:15:28;19.10;1.00
10864;DHT22;5485;37.558;126.950;2023-04-03T14:17:55;19.00;1.00
10864;DHT22;5485;37.558;126.950;2023-04-03T14:20:25;19.00;1.00
10864;DHT22;5485;37.558;126.950;2023-04-03T14:22:54;18.90;1.00
10864;DHT22;5485;37.558;126.950;2023-04-03T14:25:22;19.00;1.00
10864;DHT22;5485;37.558;126.950;2023-04-03T14:27:53;19.00;1.00
10864;DHT22;5485;37.558;126.950;2023-04-03T14:32:53;19.10;1.00
10864;DHT22;5485;37.558;126.950;2023-04-03T14:35:20;19.10;1.00
10864;DHT22;5485;37.558;126.950;2023-04-03T14:37:52;19.00;1.00
10864;DHT22;5485;37.558;126.950;2023-04-03T14:40:25;18.90;1.00
10864;DHT22;5485;37.558;126.950;2023-04-03T14:42:57;19.10;1.00
10864;DHT22;5485;37.558;126.950;2023-04-03T14:45:25;19.00;1.00
10864;DHT22;5485;37.558;126.950;2023-04-03T14:47:58;19.00;1.00
10864;DHT22;5485;37.558;126.950;2023-04-03T14:50:27;18.90;1.00
10864;DHT22;5485;37.558;126.950;2023-04-03T14:52:58;18.80;1.00
10864;DHT22;5485;37.558;126.950;2023-04-03T14:55:25;18.80;1.00
10864;DHT22;5485;37.558;126.950;2023-04-03T14:57:53;18.80;1.00
10864;DHT22;5485;37.558;126.950;2023-04-03T15:00:22;18.70;1.00
10864;DHT22;5485;37.558;126.950;2023-04-03T15:02:49;18.70;1.00
10864;DHT22;5485;37.558;126.950;2023-04-03T15:05:16;18.60;1.00
10864;DHT22;5485;37.558;126.950;2023-04-03T15:07:49;18.50;1.00
10864;DHT22;5485;37.558;126.950;2023-04-03T15:10:28;18.50;1.00
10864;DHT22;5485;37.558;126.950;2023-04-03T15:12:56;18.50;1.00
10864;DHT22;5485;37.558;126.950;2023-04-03T15:15:28;18.50;1.00
10864;DHT22;5485;37.558;126.950;2023-04-03T15:17:56;18.50;1.00
10864;DHT22;5485;37.558;126.950;2023-04-03T15:20:27;18.40;1.00
10864;DHT22;5485;37.558;126.950;2023-04-03T15:22:56;18.40;1.00
10864;DHT22;5485;37.558;126.950;2023-04-03T15:25:26;18.50;1.00
10864;DHT22;5485;37.558;126.950;2023-04-03T15:27:57;18.50;1.00
10864;DHT22;5485;37.558;126.950;2023-04-03T15:30:24;18.40;1.00
10864;DHT22;5485;37.558;126.950;2023-04-03T15:32:51;18.40;1.00
10864;DHT22;5485;37.558;126.950;2023-04-03T15:35:19;18.30;1.00
10864;DHT22;5485;37.558;126.950;2023-04-03T15:37:46;18.30;1.00
10864;DHT22;5485;37.558;126.950;2023-04-03T15:40:14;18.30;1.00
10864;DHT22;5485;37.558;126.950;2023-04-03T15:42:43;18.30;1.00
10864;DHT22;5485;37.558;126.950;2023-04-03T15:45:10;18.40;1.00
10864;DHT22;5485;37.558;126.950;2023-04-03T15:47:37;18.40;1.00
10864;DHT22;5485;37.558;126.950;2023-04-03T15:50:04;18.40;1.00
10864;DHT22;5485;37.558;126.950;2023-04-03T15:52:34;18.30;1.00
10864;DHT22;5485;37.558;126.950;2023-04-03T15:55:00;18.30;1.00
10864;DHT22;5485;37.558;126.950;2023-04-03T15:57:27;18.30;1.00
10864;DHT22;5485;37.558;126.950;2023-04-03T15:59:54;18.30;1.00
10864;DHT22;5485;37.558;126.950;2023-04-03T16:02:22;18.30;1.00
10864;DHT22;5485;37.558;126.950;2023-04-03T16:04:49;18.20;1.00
10864;DHT22;5485;37.558;126.950;2023-04-03T16:07:16;18.20;1.00
10864;DHT22;5485;37.558;126.950;2023-04-03T16:09:43;18.10;1.00
10864;DHT22;5485;37.558;126.950;2023-04-03T16:12:10;18.10;1.00
10864;DHT22;5485;37.558;126.950;2023-04-03T16:14:38;18.00;1.00
10864;DHT22;5485;37.558;126.950;2023-04-03T16:17:05;18.00;1.00
10864;DHT22;5485;37.558;126.950;2023-04-03T16:19:37;17.90;1.00
10864;DHT22;5485;37.558;126.950;2023-04-03T16:22:04;17.90;1.00
10864;DHT22;5485;37.558;126.950;2023-04-03T16:24:31;17.90;1.00
10864;DHT22;5485;37.558;126.950;2023-04-03T16:26:58;17.90;1.00
10864;DHT22;5485;37.558;126.950;2023-04-03T16:29:28;17.80;1.00
10864;DHT22;5485;37.558;126.950;2023-04-03T16:31:55;17.80;1.00
10864;DHT22;5485;37.558;126.950;2023-04-03T16:34:22;17.80;1.00
10864;DHT22;5485;37.558;126.950;2023-04-03T16:36:52;17.80;1.00
10864;DHT22;5485;37.558;126.950;2023-04-03T16:39:19;17.90;1.00
10864;DHT22;5485;37.558;126.950;2023-04-03T16:41:45;17.80;1.00
10864;DHT22;5485;37.558;126.950;2023-04-03T16:44:12;17.90;1.00
10864;DHT22;5485;37.558;126.950;2023-04-03T16:46:39;17.80;1.00
10864;DHT22;5485;37.558;126.950;2023-04-03T16:49:06;17.80;1.00
10864;DHT22;5485;37.558;126.950;2023-04-03T16:51:33;17.80;1.00
10864;DHT22;5485;37.558;126.950;2023-04-03T16:54:00;17.80;1.00
10864;DHT22;5485;37.558;126.950;2023-04-03T16:56:27;17.80;1.00
10864;DHT22;5485;37.558;126.950;2023-04-03T16:58:57;17.80;1.00
10864;DHT22;5485;37.558;126.950;2023-04-03T17:01:24;17.80;1.00
10864;DHT22;5485;37.558;126.950;2023-04-03T17:03:54;17.80;1.00
10864;DHT22;5485;37.558;126.950;2023-04-03T17:06:22;17.70;1.00
10864;DHT22;5485;37.558;126.950;2023-04-03T17:08:51;17.70;1.00
10864;DHT22;5485;37.558;126.950;2023-04-03T17:11:18;17.70;1.00
10864;DHT22;5485;37.558;126.950;2023-04-03T17:13:46;17.70;1.00
10864;DHT22;5485;37.558;126.950;2023-04-03T17:16:15;17.70;1.00
10864;DHT22;5485;37.558;126.950;2023-04-03T17:18:42;17.60;1.00
10864;DHT22;5485;37.558;126.950;2023-04-03T17:21:09;17.60;1.00
10864;DHT22;5485;37.558;126.950;2023-04-03T17:23:38;17.60;1.00
10864;DHT22;5485;37.558;126.950;2023-04-03T17:26:06;17.60;1.00
10864;DHT22;5485;37.558;126.950;2023-04-03T17:28:33;17.60;1.00
10864;DHT22;5485;37.558;126.950;2023-04-03T17:31:02;17.50;1.00
10864;DHT22;5485;37.558;126.950;2023-04-03T17:33:32;17.50;1.00
10864;DHT22;5485;37.558;126.950;2023-04-03T17:36:01;17.50;1.00